Time;durP1;ratioP1;P1;durP2;ratioP2;P2;SDS_P1;SDS_P2;PMS_P1;PMS_P2;Temp;Humidity;BMP_temperature;BMP_pressure;BME280_temperature;BME280_humidity;BME280_pressure;Samples;Min_cycle;Max_cycle;Signal;HPM_P1;HPM_P2
2020/12/22 00:01:27;;;;;;;1.00;0.70;;;10.60;99.90;;;;;;5059312;28;20049;-62
2020/12/22 00:03:53;;;;;;;0.82;0.50;;;10.60;99.90;;;;;;5052370;28;20084;-62
2020/12/22 00:06:23;;;;;;;1.60;0.77;;;10.70;99.90;;;;;;5052212;28;20045;-62
2020/12/22 00:08:52;;;;;;;1.17;0.80;;;10.80;99.90;;;;;;5052522;28;20474;-62
2020/12/22 00:11:19;;;;;;;1.37;0.70;;;10.90;99.90;;;;;;5052560;28;20414;-62
2020/12/22 00:13:46;;;;;;;1.05;0.63;;;10.90;99.90;;;;;;5052300;28;20052;-63
2020/12/22 00:16:13;;;;;;;1.23;0.95;;;10.90;99.90;;;;;;5069691;28;20193;-63
2020/12/22 00:18:40;;;;;;;1.20;0.77;;;10.90;99.90;;;;;;5072152;28;20055;-62
2020/12/22 00:21:07;;;;;;;1.02;0.60;;;11.00;99.90;;;;;;5072204;28;20052;-63
2020/12/22 00:23:34;;;;;;;1.27;0.70;;;11.10;99.90;;;;;;5072267;28;20052;-62
2020/12/22 00:26:00;;;;;;;1.95;0.60;;;11.10;99.90;;;;;;5073642;28;20117;-62
2020/12/22 00:28:28;;;;;;;1.58;0.70;;;11.30;99.90;;;;;;5076212;28;20099;-62
2020/12/22 00:30:54;;;;;;;0.93;0.60;;;11.30;99.90;;;;;;5058917;28;20448;-61
2020/12/22 00:33:21;;;;;;;1.77;0.65;;;11.40;99.90;;;;;;5055538;28;20056;-62
2020/12/22 00:35:47;;;;;;;0.75;0.50;;;11.40;99.90;;;;;;5055299;28;20080;-62
2020/12/22 00:38:14;;;;;;;1.15;0.70;;;11.50;99.90;;;;;;5055618;28;20438;-62
2020/12/22 00:40:43;;;;;;;0.93;0.60;;;11.50;99.90;;;;;;5055596;28;20391;-62
2020/12/22 00:43:09;;;;;;;1.73;0.88;;;11.50;99.90;;;;;;5055584;28;20045;-61
2020/12/22 00:45:37;;;;;;;1.02;0.60;;;11.50;99.90;;;;;;5072090;28;20074;-62
2020/12/22 00:48:03;;;;;;;1.30;0.85;;;11.50;99.90;;;;;;5075686;28;20048;-62
2020/12/22 00:50:30;;;;;;;0.98;0.50;;;11.50;99.90;;;;;;5075888;28;20076;-62
2020/12/22 00:53:00;;;;;;;1.88;0.75;;;11.50;99.90;;;;;;5075539;28;20402;-62
2020/12/22 00:55:28;;;;;;;;;;;11.60;99.90;;;;;;5076100;28;20507;-62
2020/12/22 00:57:55;;;;;;;1.00;0.60;;;11.60;99.90;;;;;;5075270;28;19943;-62
2020/12/22 01:00:22;;;;;;;1.08;0.60;;;11.70;99.90;;;;;;5074447;28;20083;-62
2020/12/22 01:02:49;;;;;;;1.10;0.68;;;11.70;99.90;;;;;;5075148;28;20052;-62
2020/12/22 01:05:15;;;;;;;0.52;0.40;;;11.70;99.90;;;;;;5075405;28;20092;-62
2020/12/22 01:07:42;;;;;;;1.02;0.50;;;11.70;99.90;;;;;;5075390;28;20086;-62
2020/12/22 01:10:08;;;;;;;1.00;0.52;;;11.80;99.90;;;;;;5075102;28;20427;-62
2020/12/22 01:12:35;;;;;;;1.00;0.43;;;11.80;99.90;;;;;;5075274;28;20060;-62
2020/12/22 01:15:02;;;;;;;0.68;0.45;;;11.90;99.90;;;;;;5058910;28;20084;-61
2020/12/22 01:17:29;;;;;;;1.40;0.50;;;12.00;99.90;;;;;;5054826;28;20133;-60
2020/12/22 01:19:58;;;;;;;0.70;0.45;;;12.00;99.90;;;;;;5054941;28;20141;-62
2020/12/22 01:22:28;;;;;;;0.75;0.43;;;12.10;99.90;;;;;;5062505;28;20056;-62
2020/12/22 01:24:55;;;;;;;0.55;0.40;;;12.10;99.90;;;;;;5074863;28;20053;-62
2020/12/22 01:27:21;;;;;;;1.27;0.60;;;12.10;99.90;;;;;;5074856;28;20048;-62
2020/12/22 01:29:48;;;;;;;0.60;0.40;;;12.10;99.90;;;;;;5074815;28;20383;-62
2020/12/22 01:32:14;;;;;;;0.75;0.40;;;12.20;99.90;;;;;;5074548;28;20045;-62
2020/12/22 01:34:41;;;;;;;1.08;0.50;;;12.20;99.90;;;;;;5074758;28;20473;-62
2020/12/22 01:37:12;;;;;;;1.30;0.63;;;12.10;99.90;;;;;;5066673;28;20055;-62
2020/12/22 01:39:39;;;;;;;4.40;0.90;;;12.00;99.90;;;;;;5054827;28;20434;-62
2020/12/22 01:42:08;;;;;;;1.05;0.52;;;12.00;99.90;;;;;;5054302;28;20055;-63
2020/12/22 01:44:34;;;;;;;0.82;0.50;;;11.90;99.90;;;;;;5054605;28;20137;-62
2020/12/22 01:47:01;;;;;;;1.08;0.50;;;11.80;99.90;;;;;;5054250;28;20085;-62
2020/12/22 01:49:28;;;;;;;0.90;0.60;;;11.80;99.90;;;;;;5054431;28;20060;-63
2020/12/22 01:51:57;;;;;;;1.25;0.63;;;11.70;99.90;;;;;;5073863;28;20455;-63
2020/12/22 01:54:25;;;;;;;1.98;0.70;;;11.80;99.90;;;;;;5074316;28;20052;-62
2020/12/22 01:56:52;;;;;;;6.00;0.80;;;11.70;99.90;;;;;;5073960;28;20071;-63
2020/12/22 01:59:19;;;;;;;1.13;0.82;;;11.70;99.90;;;;;;5074089;28;20499;-63
2020/12/22 02:01:47;;;;;;;0.80;0.40;;;11.60;99.90;;;;;;5074172;28;20137;-63
2020/12/22 02:04:14;;;;;;;0.80;0.50;;;11.70;99.90;;;;;;5074099;28;20053;-63
2020/12/22 02:06:41;;;;;;;0.80;0.40;;;11.70;99.90;;;;;;5066331;28;20052;-63
2020/12/22 02:09:10;;;;;;;1.33;0.47;;;11.70;99.90;;;;;;5053961;28;20489;-62
2020/12/22 02:11:40;;;;;;;0.65;0.45;;;11.70;99.90;;;;;;5053790;28;20059;-63
2020/12/22 02:14:08;;;;;;;0.90;0.50;;;11.70;99.90;;;;;;5053877;28;20053;-63
2020/12/22 02:16:35;;;;;;;1.35;0.70;;;11.70;99.90;;;;;;5053740;28;20460;-63
2020/12/22 02:19:02;;;;;;;1.13;0.60;;;11.80;99.90;;;;;;5053773;28;20179;-63
2020/12/22 02:21:29;;;;;;;1.10;0.60;;;11.90;99.90;;;;;;5061210;28;20550;-63
2020/12/22 02:23:56;;;;;;;1.25;0.65;;;11.90;99.90;;;;;;5073502;28;20044;-63
2020/12/22 02:26:24;;;;;;;1.13;0.50;;;11.90;99.90;;;;;;5073374;28;20052;-63
2020/12/22 02:28:51;;;;;;;2.22;0.60;;;11.90;99.90;;;;;;5073567;28;20041;-63
2020/12/22 02:31:18;;;;;;;1.20;0.70;;;12.00;99.90;;;;;;5073431;28;20505;-63
2020/12/22 02:33:45;;;;;;;1.33;0.70;;;12.00;99.90;;;;;;5071721;28;20044;-63
2020/12/22 02:36:13;;;;;;;1.40;0.80;;;12.10;99.90;;;;;;5072820;28;20409;-63
2020/12/22 02:38:43;;;;;;;1.40;0.80;;;12.10;99.90;;;;;;5073181;28;20079;-63
2020/12/22 02:41:10;;;;;;;1.35;1.05;;;12.20;99.90;;;;;;5073329;28;20094;-63
2020/12/22 02:43:37;;;;;;;1.55;0.90;;;12.20;99.90;;;;;;5073220;28;20048;-63
2020/12/22 02:46:04;;;;;;;1.60;1.30;;;12.30;99.90;;;;;;5073139;28;20087;-63
2020/12/22 02:48:30;;;;;;;2.30;1.38;;;12.40;99.90;;;;;;5062361;28;20451;-63
2020/12/22 02:50:57;;;;;;;2.78;1.55;;;12.40;99.90;;;;;;5065666;28;20048;-63
2020/12/22 02:53:24;;;;;;;2.80;1.80;;;12.50;99.90;;;;;;5073222;28;20481;-63
2020/12/22 02:55:54;;;;;;;2.53;1.70;;;12.50;99.90;;;;;;5073227;28;20080;-63
2020/12/22 02:58:23;;;;;;;2.47;1.88;;;12.50;99.90;;;;;;5073197;28;20565;-63
2020/12/22 03:00:52;;;;;;;1.58;1.30;;;12.50;99.90;;;;;;5073014;28;20045;-63
2020/12/22 03:03:19;;;;;;;1.90;1.42;;;12.50;99.90;;;;;;5072483;28;20048;-63
2020/12/22 03:05:46;;;;;;;2.63;1.63;;;12.50;99.90;;;;;;5073880;28;20052;-63
2020/12/22 03:08:12;;;;;;;1.88;1.30;;;12.50;99.90;;;;;;5073113;28;20054;-63
2020/12/22 03:10:39;;;;;;;2.53;1.40;;;12.60;99.90;;;;;;5072875;28;20098;-63
2020/12/22 03:13:07;;;;;;;1.90;1.60;;;12.60;99.90;;;;;;5072895;28;20052;-63
2020/12/22 03:15:33;;;;;;;1.80;1.50;;;12.70;99.90;;;;;;5073539;28;20098;-63
2020/12/22 03:18:00;;;;;;;1.90;1.58;;;12.80;99.90;;;;;;5072369;28;20375;-63
2020/12/22 03:20:26;;;;;;;2.08;1.42;;;12.80;99.90;;;;;;5073652;28;20056;-63
2020/12/22 03:22:53;;;;;;;2.33;1.90;;;12.80;99.90;;;;;;5073342;28;20084;-63
2020/12/22 03:25:20;;;;;;;3.03;2.20;;;12.90;99.90;;;;;;5072921;28;20088;-63
2020/12/22 03:27:46;;;;;;;2.90;1.90;;;12.90;99.90;;;;;;5073256;28;20067;-63
2020/12/22 03:30:16;;;;;;;2.30;1.67;;;13.00;99.90;;;;;;5072870;28;20067;-63
2020/12/22 03:32:42;;;;;;;;;;;13.00;99.90;;;;;;5063383;28;20088;-63
2020/12/22 03:35:11;;;;;;;2.30;1.73;;;13.10;99.90;;;;;;5052872;28;19921;-62
2020/12/22 03:37:38;;;;;;;2.43;1.70;;;13.20;99.90;;;;;;5052347;28;20103;-62
2020/12/22 03:40:07;;;;;;;2.75;1.63;;;13.20;99.90;;;;;;5052666;28;20063;-62
2020/12/22 03:42:34;;;;;;;3.17;1.75;;;13.30;99.90;;;;;;5052763;28;20052;-62
2020/12/22 03:45:00;;;;;;;3.17;1.98;;;13.40;99.90;;;;;;5069244;28;20049;-61
2020/12/22 03:47:28;;;;;;;2.35;1.80;;;13.40;99.90;;;;;;5072806;28;20072;-61
2020/12/22 03:49:54;;;;;;;2.55;1.80;;;13.50;99.90;;;;;;5072801;28;20080;-62
2020/12/22 03:52:21;;;;;;;2.10;1.60;;;13.50;99.90;;;;;;5072065;28;20201;-62
2020/12/22 03:54:47;;;;;;;1.75;1.35;;;13.60;99.90;;;;;;5072593;28;20509;-62
2020/12/22 03:57:15;;;;;;;2.28;1.17;;;13.70;99.90;;;;;;5072865;28;20098;-62
2020/12/22 03:59:42;;;;;;;3.22;1.50;;;13.70;99.90;;;;;;5073571;28;20148;-62
2020/12/22 04:02:09;;;;;;;1.83;1.23;;;13.70;99.90;;;;;;5076647;28;20520;-62
2020/12/22 04:04:37;;;;;;;1.80;1.00;;;13.80;99.90;;;;;;5076256;28;20049;-62
2020/12/22 04:07:03;;;;;;;1.60;1.15;;;13.80;99.90;;;;;;5069024;28;20110;-61
2020/12/22 04:09:30;;;;;;;1.73;1.05;;;13.80;99.90;;;;;;5056473;28;20395;-62
2020/12/22 04:11:57;;;;;;;1.52;1.02;;;13.80;99.90;;;;;;5056317;28;20106;-62
2020/12/22 04:14:23;;;;;;;1.73;1.25;;;13.80;99.90;;;;;;5056080;28;20509;-62
2020/12/22 04:16:52;;;;;;;2.83;1.27;;;13.80;99.90;;;;;;5056319;28;20536;-62
2020/12/22 04:19:19;;;;;;;1.73;1.20;;;13.80;99.90;;;;;;5056064;28;20064;-62
2020/12/22 04:21:47;;;;;;;2.03;1.10;;;13.80;99.90;;;;;;5062658;28;20505;-63
2020/12/22 04:24:14;;;;;;;1.60;0.90;;;13.80;99.90;;;;;;5076351;28;20057;-63
2020/12/22 04:26:41;;;;;;;1.92;1.20;;;13.80;99.90;;;;;;5075990;28;20417;-63
2020/12/22 04:29:07;;;;;;;2.20;1.25;;;13.80;99.90;;;;;;5076033;28;20504;-63
2020/12/22 04:31:34;;;;;;;2.33;1.17;;;13.90;99.90;;;;;;5076067;28;20552;-63
2020/12/22 04:34:00;;;;;;;3.42;1.65;;;13.80;99.90;;;;;;5076014;28;20045;-63
2020/12/22 04:36:27;;;;;;;1.75;1.20;;;13.80;99.90;;;;;;5068758;28;20096;-63
2020/12/22 04:38:55;;;;;;;1.73;1.40;;;13.80;99.90;;;;;;5055727;28;20519;-64
2020/12/22 04:41:25;;;;;;;2.65;1.50;;;13.70;99.90;;;;;;5055450;28;20057;-64
2020/12/22 04:43:52;;;;;;;;;;;13.70;99.90;;;;;;5056075;28;20049;-64
2020/12/22 04:46:20;;;;;;;1.92;1.30;;;13.70;99.90;;;;;;5055780;28;19921;-64
2020/12/22 04:48:52;;;;;;;1.30;0.90;;;13.80;99.90;;;;;;5055833;28;20069;-64
2020/12/22 04:51:20;;;;;;;2.70;1.30;;;13.80;99.90;;;;;;5070743;28;20120;-64
2020/12/22 04:53:47;;;;;;;1.35;1.17;;;13.90;99.90;;;;;;5075377;28;20437;-65
2020/12/22 04:56:14;;;;;;;2.72;1.02;;;13.90;99.90;;;;;;5075548;28;20091;-65
2020/12/22 04:58:41;;;;;;;1.60;1.02;;;14.00;99.90;;;;;;5074987;28;20076;-65
2020/12/22 05:01:10;;;;;;;1.42;0.90;;;14.00;99.90;;;;;;5075377;28;20410;-65
2020/12/22 05:03:37;;;;;;;1.40;1.10;;;14.10;99.90;;;;;;5075262;28;20075;-65
2020/12/22 05:06:07;;;;;;;1.40;0.95;;;14.10;99.90;;;;;;5067833;28;20044;-64
2020/12/22 05:08:33;;;;;;;2.35;1.23;;;14.20;99.90;;;;;;5055164;28;20547;-65
2020/12/22 05:11:00;;;;;;;1.40;0.80;;;14.20;99.90;;;;;;5054686;28;20130;-64
2020/12/22 05:13:27;;;;;;;1.88;1.20;;;14.30;99.90;;;;;;5056190;28;20052;-64
2020/12/22 05:15:54;;;;;;;2.75;1.05;;;14.20;99.90;;;;;;5065878;28;20072;-64
2020/12/22 05:18:22;;;;;;;1.23;0.88;;;14.30;99.90;;;;;;5054856;28;20064;-64
2020/12/22 05:20:49;;;;;;;2.08;0.93;;;14.30;99.90;;;;;;5061290;28;20469;-64
2020/12/22 05:23:17;;;;;;;1.52;0.80;;;14.30;99.90;;;;;;5054560;28;20061;-64
2020/12/22 05:25:45;;;;;;;1.52;0.90;;;14.40;99.90;;;;;;5054561;28;20084;-64
2020/12/22 05:28:14;;;;;;;1.38;0.80;;;14.40;99.90;;;;;;5053452;28;20045;-64
2020/12/22 05:30:42;;;;;;;1.67;0.80;;;14.40;99.90;;;;;;5058982;28;20476;-64
2020/12/22 05:33:08;;;;;;;2.50;0.80;;;14.40;99.90;;;;;;5074431;28;20048;-64
2020/12/22 05:35:37;;;;;;;1.52;0.80;;;14.40;99.90;;;;;;5066232;28;20525;-64
2020/12/22 05:38:05;;;;;;;1.80;0.60;;;14.40;99.90;;;;;;5053956;28;20057;-64
2020/12/22 05:40:32;;;;;;;1.70;0.80;;;14.40;99.90;;;;;;5054343;28;20139;-64
2020/12/22 05:42:59;;;;;;;1.20;0.70;;;14.50;99.90;;;;;;5054370;28;20191;-64
2020/12/22 05:45:30;;;;;;;1.52;0.70;;;14.50;99.90;;;;;;5062933;28;20409;-64
2020/12/22 05:48:03;;;;;;;1.50;0.70;;;14.60;99.90;;;;;;5064294;28;20053;-64
2020/12/22 05:50:31;;;;;;;1.83;0.70;;;14.60;99.90;;;;;;5063338;28;20072;-64
2020/12/22 05:52:59;;;;;;;1.52;0.60;;;14.60;99.90;;;;;;5074140;28;20133;-64
2020/12/22 05:55:31;;;;;;;2.08;0.80;;;14.60;99.90;;;;;;5074139;28;20501;-64
2020/12/22 05:58:14;;;;;;;3.50;0.90;;;14.60;99.90;;;;;;5067893;28;20040;-64
2020/12/22 06:00:41;;;;;;;2.60;1.02;;;14.60;99.90;;;;;;5065702;28;20052;-64
2020/12/22 06:03:10;;;;;;;1.98;0.82;;;14.60;99.90;;;;;;5058278;28;20132;-64
2020/12/22 06:05:38;;;;;;;3.07;1.07;;;14.50;99.90;;;;;;5071341;28;20044;-67
2020/12/22 06:08:06;;;;;;;1.77;0.70;;;14.40;99.90;;;;;;5054821;28;20095;-67
2020/12/22 06:10:34;;;;;;;1.45;0.80;;;14.40;99.90;;;;;;5053608;28;20049;-65
2020/12/22 06:13:02;;;;;;;1.83;0.80;;;14.40;99.90;;;;;;5066333;28;20486;-66
2020/12/22 06:15:31;;;;;;;2.47;1.20;;;14.40;99.90;;;;;;5071346;28;20083;-66
2020/12/22 06:18:00;;;;;;;2.03;0.98;;;14.30;99.90;;;;;;5056010;28;20049;-66
2020/12/22 06:20:29;;;;;;;1.38;0.98;;;14.30;99.90;;;;;;5058826;28;20044;-66
2020/12/22 06:23:04;;;;;;;1.60;1.10;;;14.20;99.90;;;;;;5072650;28;20095;-66
2020/12/22 06:25:31;;;;;;;1.73;1.00;;;14.20;99.90;;;;;;5066838;28;20045;-66
2020/12/22 06:27:58;;;;;;;2.35;1.10;;;14.20;99.90;;;;;;5054347;28;20060;-66
2020/12/22 06:30:33;;;;;;;1.98;1.30;;;14.20;99.90;;;;;;5055996;28;20048;-66
2020/12/22 06:33:23;;;;;;;1.70;0.73;;;14.20;99.90;;;;;;5066944;28;20131;-65
2020/12/22 06:36:02;;;;;;;1.55;1.10;;;14.20;99.90;;;;;;5053187;28;20048;-66
2020/12/22 06:38:53;;;;;;;1.63;0.95;;;14.10;99.90;;;;;;5055733;28;20084;-66
2020/12/22 06:41:30;;;;;;;2.90;1.20;;;14.10;99.90;;;;;;5066695;28;20402;-66
2020/12/22 06:43:57;;;;;;;1.10;0.73;;;14.10;99.90;;;;;;5072966;28;20052;-66
2020/12/22 06:46:40;;;;;;;1.70;0.90;;;14.00;99.90;;;;;;5071154;28;20121;-66
2020/12/22 06:49:07;;;;;;;1.92;0.80;;;14.00;99.90;;;;;;5059489;28;20134;-66
2020/12/22 06:51:36;;;;;;;2.40;0.98;;;14.00;99.90;;;;;;5060742;28;20091;-65
2020/12/22 06:54:04;;;;;;;2.35;1.17;;;14.00;99.90;;;;;;5066264;28;20060;-65
2020/12/22 06:56:41;;;;;;;2.42;1.23;;;14.00;99.90;;;;;;5070075;28;20141;-65
2020/12/22 06:59:09;;;;;;;3.92;1.40;;;14.00;99.90;;;;;;5071717;28;20056;-65
2020/12/22 07:01:36;;;;;;;2.45;1.30;;;14.00;99.90;;;;;;5072905;28;20459;-65
2020/12/22 07:04:38;;;;;;;11.50;2.00;;;13.90;99.90;;;;;;5072235;28;20153;-65
2020/12/22 07:07:06;;;;;;;2.35;1.58;;;13.90;99.90;;;;;;5040378;28;20091;-65
2020/12/22 07:09:34;;;;;;;4.10;2.25;;;13.70;99.90;;;;;;5072714;28;20079;-65
2020/12/22 07:12:22;;;;;;;4.30;1.63;;;13.80;99.90;;;;;;5072392;28;20485;-65
2020/12/22 07:14:50;;;;;;;31.70;3.45;;;13.70;99.90;;;;;;5072474;28;20063;-64
2020/12/22 07:17:18;;;;;;;4.20;1.90;;;13.70;99.90;;;;;;5066738;28;20053;-65
2020/12/22 07:19:46;;;;;;;5.70;2.35;;;13.50;99.90;;;;;;5052494;28;20497;-65
2020/12/22 07:22:15;;;;;;;4.22;2.40;;;13.50;99.90;;;;;;5052400;28;20056;-65
2020/12/22 07:24:42;;;;;;;3.25;1.88;;;13.50;99.90;;;;;;5052462;28;20135;-64
2020/12/22 07:27:09;;;;;;;3.80;1.92;;;13.50;99.90;;;;;;5052567;28;20060;-64
2020/12/22 07:29:37;;;;;;;5.07;2.35;;;13.50;99.90;;;;;;5053668;28;20041;-65
2020/12/22 07:32:04;;;;;;;3.25;2.10;;;13.50;99.90;;;;;;5061998;28;20056;-65
2020/12/22 07:34:34;;;;;;;2.30;1.90;;;13.50;99.90;;;;;;5054344;28;20394;-65
2020/12/22 07:37:05;;;;;;;;;;;13.50;99.90;;;;;;5071022;28;20092;-65
2020/12/22 07:39:33;;;;;;;2.42;1.33;;;13.50;99.90;;;;;;5070207;28;19927;-65
2020/12/22 07:42:09;;;;;;;2.28;1.50;;;13.40;99.90;;;;;;5072458;28;20377;-65
2020/12/22 07:44:36;;;;;;;2.00;1.20;;;13.40;99.90;;;;;;5056025;28;20099;-65
2020/12/22 07:47:04;;;;;;;3.50;1.15;;;13.40;99.90;;;;;;5064762;28;20135;-65
2020/12/22 07:49:30;;;;;;;1.63;1.00;;;13.50;99.90;;;;;;5063999;28;20080;-65
2020/12/22 07:51:57;;;;;;;2.22;0.95;;;13.50;99.90;;;;;;5072832;28;20394;-65
2020/12/22 07:54:26;;;;;;;2.45;1.20;;;13.50;99.90;;;;;;5074430;28;20523;-65
2020/12/22 07:56:58;;;;;;;2.45;1.40;;;13.50;99.90;;;;;;5063921;28;20060;-65
2020/12/22 07:59:25;;;;;;;3.47;1.77;;;13.50;99.90;;;;;;5055418;28;20526;-65
2020/12/22 08:01:52;;;;;;;1.92;0.90;;;13.50;99.90;;;;;;5066372;28;20041;-65
2020/12/22 08:04:20;;;;;;;2.15;1.10;;;13.50;99.90;;;;;;5073353;28;20071;-65
2020/12/22 08:06:54;;;;;;;2.70;0.90;;;13.50;99.90;;;;;;5075358;28;20048;-65
2020/12/22 08:09:26;;;;;;;3.65;0.90;;;13.60;99.90;;;;;;5070818;28;20116;-65
2020/12/22 08:11:56;;;;;;;2.60;0.90;;;13.60;99.90;;;;;;5074891;28;20049;-65
2020/12/22 08:14:24;;;;;;;3.42;0.93;;;13.60;99.90;;;;;;5058120;28;20444;-65
2020/12/22 08:16:53;;;;;;;3.65;1.30;;;13.60;99.90;;;;;;5074263;28;20107;-64
2020/12/22 08:19:20;;;;;;;1.73;1.08;;;13.60;99.90;;;;;;5057681;28;20045;-64
2020/12/22 08:21:48;;;;;;;2.20;1.20;;;13.60;99.90;;;;;;5066148;28;20520;-64
2020/12/22 08:24:17;;;;;;;1.88;0.98;;;13.70;99.90;;;;;;5075175;28;20388;-64
2020/12/22 08:26:45;;;;;;;3.92;1.95;;;13.80;99.90;;;;;;5059144;28;20053;-64
2020/12/22 08:29:14;;;;;;;2.08;1.20;;;13.80;99.90;;;;;;5055410;28;20136;-64
2020/12/22 08:31:43;;;;;;;4.75;0.93;;;13.80;99.90;;;;;;5068717;28;20048;-64
2020/12/22 08:34:10;;;;;;;1.55;1.00;;;13.80;99.90;;;;;;5075517;28;20045;-64
2020/12/22 08:36:38;;;;;;;3.47;1.23;;;13.80;99.90;;;;;;5062008;28;20111;-64
2020/12/22 08:39:15;;;;;;;3.65;0.93;;;13.90;99.90;;;;;;5055196;28;20056;-64
2020/12/22 08:41:43;;;;;;;2.10;1.10;;;13.90;99.90;;;;;;5065714;28;20127;-64
2020/12/22 08:44:11;;;;;;;2.25;1.00;;;14.00;99.90;;;;;;5064036;28;20045;-64
2020/12/22 08:46:39;;;;;;;3.25;1.00;;;14.00;99.90;;;;;;5062394;28;20049;-64
2020/12/22 08:49:10;;;;;;;1.67;0.70;;;14.00;99.90;;;;;;5062484;28;20075;-64
2020/12/22 08:51:37;;;;;;;2.70;0.85;;;14.00;99.90;;;;;;5055046;28;20114;-64
2020/12/22 08:54:04;;;;;;;2.67;0.77;;;14.00;99.90;;;;;;5062334;28;20041;-64
2020/12/22 08:56:31;;;;;;;2.80;0.90;;;14.00;99.90;;;;;;5054988;28;20049;-64
2020/12/22 08:58:59;;;;;;;2.55;0.93;;;14.00;99.90;;;;;;5054915;28;20049;-64
2020/12/22 09:01:28;;;;;;;2.67;0.80;;;14.10;99.90;;;;;;5057165;28;20053;-64
2020/12/22 09:03:57;;;;;;;1.45;0.73;;;14.10;99.90;;;;;;5054805;28;20140;-64
2020/12/22 09:06:41;;;;;;;2.72;0.70;;;14.20;99.90;;;;;;5055041;28;20053;-64
2020/12/22 09:09:09;;;;;;;3.70;1.00;;;14.30;99.90;;;;;;5055034;28;20632;-64
2020/12/22 09:11:36;;;;;;;2.15;0.80;;;14.30;99.90;;;;;;5054929;28;20052;-64
2020/12/22 09:14:14;;;;;;;4.28;1.40;;;14.40;99.90;;;;;;5057811;28;20054;-65
2020/12/22 09:16:48;;;;;;;2.53;0.90;;;14.60;99.90;;;;;;5064813;28;20053;-65
2020/12/22 09:19:16;;;;;;;2.55;0.80;;;14.80;99.90;;;;;;5058650;28;20098;-65
2020/12/22 09:21:43;;;;;;;2.55;1.05;;;14.80;99.90;;;;;;5072434;28;20117;-65
2020/12/22 09:24:16;;;;;;;3.50;0.82;;;14.80;99.90;;;;;;5069664;28;20052;-65
2020/12/22 09:26:54;;;;;;;2.47;0.88;;;15.20;99.90;;;;;;5055098;28;20052;-66
2020/12/22 09:29:21;;;;;;;2.70;1.13;;;15.20;99.90;;;;;;5054594;28;20052;-66
2020/12/22 09:31:48;;;;;;;2.55;1.10;;;15.20;99.90;;;;;;5063184;28;20478;-66
2020/12/22 09:34:16;;;;;;;2.65;0.80;;;15.00;99.90;;;;;;5073935;28;20044;-66
2020/12/22 09:36:42;;;;;;;2.58;1.02;;;14.90;99.90;;;;;;5070061;28;20044;-65
2020/12/22 09:39:09;;;;;;;1.38;0.77;;;14.90;99.90;;;;;;5054013;28;20107;-65
2020/12/22 09:41:42;;;;;;;1.70;0.75;;;15.20;99.90;;;;;;5054071;28;20087;-65
2020/12/22 09:44:09;;;;;;;3.33;1.30;;;15.30;99.90;;;;;;5054254;28;20128;-66
2020/12/22 09:46:37;;;;;;;2.13;0.70;;;15.20;99.90;;;;;;5057604;28;20087;-66
2020/12/22 09:49:07;;;;;;;1.42;0.80;;;15.10;99.90;;;;;;5069387;28;20041;-66
2020/12/22 09:51:34;;;;;;;2.08;0.88;;;15.00;99.90;;;;;;5054264;28;20088;-66
2020/12/22 09:54:01;;;;;;;3.47;1.00;;;15.00;99.90;;;;;;5054363;28;20107;-66
2020/12/22 09:56:27;;;;;;;2.78;1.00;;;15.00;99.90;;;;;;5070968;28;20462;-66
2020/12/22 09:58:56;;;;;;;2.00;0.65;;;14.90;99.90;;;;;;5069768;28;20067;-66
2020/12/22 10:01:26;;;;;;;1.90;0.60;;;14.90;99.90;;;;;;5073856;28;20052;-66
2020/12/22 10:03:53;;;;;;;1.33;0.68;;;14.90;99.90;;;;;;5074316;28;20475;-66
2020/12/22 10:06:22;;;;;;;1.60;0.80;;;14.80;99.90;;;;;;5070664;28;20044;-66
2020/12/22 10:08:50;;;;;;;1.63;0.60;;;14.80;99.90;;;;;;5073600;28;20080;-66
2020/12/22 10:11:17;;;;;;;1.10;0.55;;;14.70;99.90;;;;;;5068732;28;20512;-66
2020/12/22 10:13:44;;;;;;;1.98;0.80;;;14.60;99.90;;;;;;5053840;28;20076;-66
2020/12/22 10:16:12;;;;;;;1.77;0.88;;;14.60;99.90;;;;;;5061048;28;20490;-66
2020/12/22 10:18:39;;;;;;;2.63;0.90;;;14.60;99.90;;;;;;5055595;28;20045;-66
2020/12/22 10:21:07;;;;;;;4.55;1.20;;;14.60;99.90;;;;;;5054441;28;20056;-66
2020/12/22 10:23:36;;;;;;;2.10;0.70;;;14.60;99.90;;;;;;5053719;28;20470;-66
2020/12/22 10:26:05;;;;;;;1.75;0.85;;;14.50;99.90;;;;;;5054133;28;20052;-66
2020/12/22 10:28:33;;;;;;;2.55;0.80;;;14.50;99.90;;;;;;5054672;28;20049;-66
2020/12/22 10:31:00;;;;;;;1.58;0.75;;;14.50;99.90;;;;;;5055868;28;20067;-66
2020/12/22 10:33:27;;;;;;;1.30;0.60;;;14.50;99.90;;;;;;5061023;28;20056;-66
2020/12/22 10:35:54;;;;;;;2.15;0.60;;;14.40;99.90;;;;;;5053362;28;20048;-66
2020/12/22 10:38:22;;;;;;;2.85;1.10;;;14.30;99.90;;;;;;5069541;28;20049;-66
2020/12/22 10:40:49;;;;;;;1.83;0.70;;;14.20;99.90;;;;;;5067275;28;20095;-66
2020/12/22 10:43:19;;;;;;;2.20;1.40;;;14.20;99.90;;;;;;5071809;28;20056;-66
2020/12/22 10:45:46;;;;;;;2.28;0.90;;;14.20;99.90;;;;;;5066916;28;20080;-66
2020/12/22 10:48:12;;;;;;;1.50;0.73;;;14.10;99.90;;;;;;5072719;28;20095;-66
2020/12/22 10:50:39;;;;;;;3.30;1.70;;;14.00;99.90;;;;;;5063207;28;20529;-66
2020/12/22 10:53:08;;;;;;;2.22;1.17;;;13.90;99.90;;;;;;5060427;28;20134;-66
2020/12/22 10:55:35;;;;;;;6.45;1.23;;;13.80;99.90;;;;;;5067787;28;20057;-65
2020/12/22 10:58:02;;;;;;;3.25;1.10;;;13.80;99.90;;;;;;5053629;28;20456;-65
2020/12/22 11:00:29;;;;;;;2.05;0.95;;;13.70;99.90;;;;;;5069922;28;20059;-65
2020/12/22 11:03:00;;;;;;;2.00;1.10;;;13.60;99.90;;;;;;5059868;28;20421;-65
2020/12/22 11:08:11;;;;;;;2.58;1.25;;;13.60;99.90;;;;;;5063106;28;20125;-66
2020/12/22 11:10:38;;;;;;;3.50;1.33;;;13.50;99.90;;;;;;5072177;28;20490;-66
2020/12/22 11:13:05;;;;;;;2.40;1.50;;;13.40;99.90;;;;;;5072082;28;20485;-66
2020/12/22 11:15:32;;;;;;;3.70;1.67;;;13.50;99.90;;;;;;5063822;28;20049;-66
2020/12/22 11:17:59;;;;;;;3.20;1.70;;;13.50;99.90;;;;;;5063105;28;20474;-66
2020/12/22 11:20:26;;;;;;;3.80;1.92;;;13.60;99.90;;;;;;5065678;28;20044;-66
2020/12/22 11:22:53;;;;;;;3.90;1.80;;;13.70;99.90;;;;;;5070638;28;20056;-66
2020/12/22 11:25:20;;;;;;;3.03;2.00;;;13.70;99.90;;;;;;5072042;28;20045;-66
2020/12/22 11:27:47;;;;;;;2.17;1.55;;;13.80;99.90;;;;;;5072510;28;20466;-66
2020/12/22 11:30:14;;;;;;;4.05;1.85;;;13.80;99.90;;;;;;5072692;28;20080;-66
2020/12/22 11:32:42;;;;;;;3.00;1.50;;;13.90;99.90;;;;;;5071855;28;20458;-66
2020/12/22 11:35:09;;;;;;;4.45;1.70;;;14.00;99.90;;;;;;5072841;28;20056;-66
2020/12/22 11:37:37;;;;;;;4.32;2.30;;;14.20;99.90;;;;;;5070845;28;20063;-65
2020/12/22 11:40:05;;;;;;;3.22;1.58;;;14.70;99.90;;;;;;5072581;28;20452;-65
2020/12/22 11:42:32;;;;;;;1.90;1.10;;;15.00;99.90;;;;;;5072605;28;20087;-66
2020/12/22 11:44:58;;;;;;;2.15;1.13;;;15.10;99.90;;;;;;5072497;28;20057;-65
2020/12/22 11:47:25;;;;;;;2.78;1.20;;;15.10;99.90;;;;;;5066598;28;20045;-65
2020/12/22 11:49:52;;;;;;;2.35;1.80;;;15.10;99.90;;;;;;5052218;28;20045;-65
2020/12/22 11:52:20;;;;;;;2.40;1.17;;;15.30;99.90;;;;;;5052313;28;20080;-65
2020/12/22 11:54:47;;;;;;;2.22;1.40;;;15.50;99.90;;;;;;5052662;28;20055;-65
2020/12/22 11:57:14;;;;;;;3.45;1.20;;;15.50;99.90;;;;;;5052528;28;20110;-65
2020/12/22 11:59:41;;;;;;;3.72;1.60;;;15.30;99.90;;;;;;5052027;28;20046;-65
2020/12/22 12:02:07;;;;;;;4.70;1.20;;;15.10;99.90;;;;;;5057732;28;20044;-65
2020/12/22 12:04:34;;;;;;;3.92;1.30;;;15.00;99.90;;;;;;5072447;28;20056;-65
2020/12/22 12:07:02;;;;;;;2.78;1.10;;;14.90;99.90;;;;;;5072066;28;20056;-65
2020/12/22 12:09:28;;;;;;;3.40;2.00;;;14.70;99.90;;;;;;5072000;28;20083;-65
2020/12/22 12:11:57;;;;;;;4.10;2.10;;;14.70;99.90;;;;;;5071627;28;20048;-65
2020/12/22 12:14:25;;;;;;;4.53;2.30;;;14.60;99.90;;;;;;5072075;28;20553;-65
2020/12/22 12:16:52;;;;;;;4.22;2.42;;;14.30;99.90;;;;;;5066408;28;20059;-65
2020/12/22 12:19:19;;;;;;;5.20;2.60;;;14.20;99.90;;;;;;5072152;28;20045;-65
2020/12/22 12:21:46;;;;;;;3.65;2.50;;;14.10;99.90;;;;;;5074593;28;20420;-65
2020/12/22 12:24:13;;;;;;;3.22;2.30;;;14.00;99.90;;;;;;5075749;28;20472;-65
2020/12/22 12:26:40;;;;;;;3.45;2.00;;;13.90;99.90;;;;;;5075617;28;20051;-65
2020/12/22 12:29:07;;;;;;;3.60;2.35;;;14.00;99.90;;;;;;5075742;28;20531;-65
2020/12/22 12:31:34;;;;;;;3.20;1.63;;;13.90;99.90;;;;;;5073157;28;20044;-65
2020/12/22 12:34:01;;;;;;;3.85;1.70;;;13.80;99.90;;;;;;5055572;28;20053;-65
2020/12/22 12:36:28;;;;;;;2.60;1.48;;;13.80;99.90;;;;;;5055276;28;20085;-65
2020/12/22 12:38:55;;;;;;;4.03;1.20;;;13.70;99.90;;;;;;5054949;28;20053;-65
2020/12/22 12:41:23;;;;;;;2.22;1.30;;;13.60;99.90;;;;;;5055343;28;20083;-65
2020/12/22 12:43:49;;;;;;;2.92;1.65;;;13.60;99.90;;;;;;5055447;28;20478;-66
2020/12/22 12:46:16;;;;;;;3.33;1.40;;;13.60;99.90;;;;;;5057203;28;20482;-66
2020/12/22 12:48:43;;;;;;;3.15;1.65;;;13.60;99.90;;;;;;5075272;28;20143;-66
2020/12/22 12:51:10;;;;;;;3.30;1.80;;;13.70;99.90;;;;;;5075518;28;20135;-66
2020/12/22 12:53:37;;;;;;;3.20;1.80;;;13.70;99.90;;;;;;5075279;28;20060;-66
2020/12/22 12:56:05;;;;;;;4.05;2.22;;;13.70;99.90;;;;;;5075241;28;20139;-66